Time;durP1;ratioP1;P1;durP2;ratioP2;P2;SDS_P1;SDS_P2;PMS_P1;PMS_P2;Temp;Humidity;BMP_temperature;BMP_pressure;BME280_temperature;BME280_humidity;BME280_pressure;Samples;Min_cycle;Max_cycle;Signal;HPM_P1;HPM_P2
2022/07/15 00:04:37;;;;;;;1.48;0.70;;;;;;;;;;20913263;28;20274;-74
2022/07/15 00:14:39;;;;;;;2.35;0.60;;;;;;;;;;20910204;28;20220;-74
2022/07/15 00:24:41;;;;;;;2.13;0.50;;;;;;;;;;20911343;28;20267;-74
2022/07/15 00:34:43;;;;;;;1.92;0.65;;;;;;;;;;20911163;28;20309;-74
2022/07/15 00:44:44;;;;;;;1.25;0.60;;;;;;;;;;20908316;28;20285;-73
2022/07/15 00:54:49;;;;;;;1.73;0.75;;;;;;;;;;20910083;28;20212;-74
2022/07/15 01:04:51;;;;;;;1.25;0.60;;;;;;;;;;20907028;28;20228;-73
2022/07/15 01:14:53;;;;;;;5.47;0.70;;;;;;;;;;20904471;28;20363;-73
2022/07/15 01:24:55;;;;;;;1.20;0.75;;;;;;;;;;20889468;28;20199;-74
2022/07/15 01:35:00;;;;;;;0.80;0.60;;;;;;;;;;20903981;28;20638;-73
2022/07/15 01:45:05;;;;;;;0.73;0.43;;;23.40;92.50;;;;;;20905112;28;20203;-73
2022/07/15 01:55:08;;;;;;;1.27;0.60;;;;;;;;;;20886718;28;20221;-73
2022/07/15 02:05:10;;;;;;;0.85;0.50;;;;;;;;;;20903858;28;20904;-73
2022/07/15 02:15:13;;;;;;;1.55;0.60;;;;;;;;;;20901487;28;20278;-73
2022/07/15 02:25:19;;;;;;;2.03;0.60;;;;;;;;;;20902383;28;20270;-73
2022/07/15 02:35:22;;;;;;;3.33;0.75;;;21.90;93.70;;;;;;20879207;28;20227;-73
2022/07/15 02:45:25;;;;;;;1.13;0.60;;;22.60;94.40;;;;;;20911645;28;20305;-73
2022/07/15 02:55:27;;;;;;;2.47;0.82;;;;;;;;;;20990414;22;20279;-75
2022/07/15 03:05:29;;;;;;;3.83;0.60;;;;;;;;;;21113453;28;20209;-74
2022/07/15 03:15:31;;;;;;;3.78;0.73;;;;;;;;;;21166447;28;20334;-75
2022/07/15 03:25:33;;;;;;;1.42;0.60;;;22.10;89.70;;;;;;21149010;28;20628;-73
2022/07/15 03:35:41;;;;;;;2.30;0.68;;;;;;;;;;21163514;28;20220;-74
2022/07/15 03:45:43;;;;;;;2.03;0.80;;;;;;;;;;21163928;28;20268;-74
2022/07/15 03:55:46;;;;;;;1.00;0.60;;;;;;;;;;21161592;27;20718;-75
2022/07/15 04:05:47;;;;;;;1.80;0.70;;;;;;;;;;21162744;28;20572;-73
2022/07/15 04:15:52;;;;;;;1.73;0.67;;;;;;;;;;21153827;28;20211;-72
2022/07/15 04:25:54;;;;;;;3.58;0.60;;;;;;;;;;21141682;28;20302;-71
2022/07/15 04:35:56;;;;;;;0.75;0.55;;;;;;;;;;21141569;28;20223;-71
2022/07/15 04:45:58;;;;;;;0.80;0.40;;;;;;;;;;21149806;28;20683;-71
2022/07/15 04:56:00;;;;;;;1.52;0.88;;;;;;;;;;21119975;28;20224;-71
2022/07/15 05:06:02;;;;;;;1.13;0.50;;;;;;;;;;21146627;28;20751;-72
2022/07/15 05:16:09;;;;;;;1.77;0.63;;;;;;;;;;21156755;28;20710;-71
2022/07/15 05:26:12;;;;;;;2.78;1.23;;;;;;;;;;21155320;28;20216;-72
2022/07/15 05:36:17;;;;;;;3.28;0.68;;;;;;;;;;21157066;28;20215;-72
2022/07/15 05:46:21;;;;;;;4.35;0.50;;;21.50;91.80;;;;;;21086616;28;20214;-74
2022/07/15 05:56:28;;;;;;;0.80;0.47;;;;;;;;;;21070030;28;20220;-73
2022/07/15 06:06:31;;;;;;;0.82;0.40;;;;;;;;;;21053049;28;20205;-73
2022/07/15 06:16:34;;;;;;;1.52;0.45;;;;;;;;;;21066955;28;20222;-72
2022/07/15 06:26:36;;;;;;;1.77;0.50;;;;;;;;;;21067905;28;20208;-73
2022/07/15 06:36:38;;;;;;;2.38;0.70;;;;;;;;;;21052853;28;20218;-72
2022/07/15 06:46:40;;;;;;;3.58;0.68;;;;;;;;;;21055555;28;20261;-72
2022/07/15 06:56:42;;;;;;;1.17;0.50;;;;;;;;;;21072258;28;20220;-72
2022/07/15 07:06:44;;;;;;;1.27;0.50;;;22.40;97.00;;;;;;21080029;28;20248;-73
2022/07/15 07:16:46;;;;;;;0.68;0.38;;;;;;;;;;21085924;28;20216;-71
2022/07/15 07:26:48;;;;;;;1.65;0.40;;;;;;;;;;21086795;28;20272;-74
2022/07/15 07:36:49;;;;;;;0.90;0.47;;;;;;;;;;21100565;28;20217;-73
2022/07/15 07:46:51;;;;;;;1.52;0.40;;;;;;;;;;21080302;28;20265;-73
2022/07/15 07:56:53;;;;;;;1.35;0.43;;;;;;;;;;21079274;28;20272;-73
2022/07/15 08:06:55;;;;;;;2.38;0.80;;;;;;;;;;21080787;28;20198;-74
2022/07/15 08:16:56;;;;;;;0.95;0.40;;;;;;;;;;21079023;28;20343;-73
2022/07/15 08:26:58;;;;;;;0.52;0.40;;;;;;;;;;21077285;28;20215;-74
2022/07/15 08:37:00;;;;;;;0.75;0.35;;;;;;;;;;21077396;28;20213;-74
2022/07/15 08:47:05;;;;;;;2.78;0.50;;;23.80;89.70;;;;;;21059606;28;20672;-73
2022/07/15 08:57:07;;;;;;;1.50;0.40;;;;;;;;;;21021977;22;20227;-85
2022/07/15 09:07:11;;;;;;;0.60;0.40;;;;;;;;;;20830344;28;20212;-87
2022/07/15 09:17:13;;;;;;;0.63;0.38;;;;;;;;;;20794830;28;20783;-86
2022/07/15 09:27:28;;;;;;;2.33;0.68;;;24.60;83.90;;;;;;20793449;28;20258;-86
2022/07/15 09:37:31;;;;;;;2.70;0.40;;;;;;;;;;20808954;28;20621;-86
2022/07/15 09:47:33;;;;;;;1.70;0.50;;;;;;;;;;20809699;28;20689;-87
2022/07/15 09:57:35;;;;;;;1.40;0.43;;;;;;;;;;20805163;28;20717;-85
2022/07/15 10:07:37;;;;;;;0.95;0.40;;;;;;;;;;20807364;28;20244;-87
2022/07/15 10:18:02;;;;;;;1.52;0.52;;;;;;;;;;20806982;28;20228;-87
2022/07/15 10:28:06;;;;;;;3.50;0.77;;;;;;;;;;20790315;28;20206;-87
2022/07/15 10:38:19;;;;;;;0.65;0.40;;;;;;;;;;20773529;28;20630;-87
2022/07/15 10:48:28;;;;;;;1.65;0.50;;;;;;;;;;20789110;28;20204;-88
2022/07/15 10:58:31;;;;;;;1.20;0.50;;;;;;;;;;20804844;28;20235;-87
2022/07/15 11:08:32;;;;;;;1.92;0.52;;;;;;;;;;20804210;28;20212;-87
2022/07/15 11:18:46;;;;;;;2.72;0.63;;;;;;;;;;20820848;28;20248;-87
2022/07/15 11:28:51;;;;;;;2.70;0.52;;;;;;;;;;20805758;28;20558;-86
2022/07/15 11:38:53;;;;;;;1.35;0.65;;;;;;;;;;20802999;28;20230;-88
2022/07/15 11:48:56;;;;;;;2.05;0.50;;;;;;;;;;20802883;28;20205;-88
2022/07/15 11:58:57;;;;;;;1.52;0.50;;;;;;;;;;20825782;28;20255;-88
2022/07/15 12:09:00;;;;;;;1.10;0.50;;;;;;;;;;20809717;28;20747;-86
2022/07/15 12:19:04;;;;;;;2.17;0.60;;;;;;;;;;20828926;28;20573;-87
2022/07/15 12:29:08;;;;;;;1.42;0.70;;;;;;;;;;20772168;28;20226;-88
2022/07/15 12:39:18;;;;;;;0.90;0.50;;;;;;;;;;20779064;28;20230;-89
2022/07/15 12:49:54;;;;;;;0.55;0.40;;;;;;;;;;20820274;28;20221;-89
2022/07/15 13:00:06;;;;;;;0.82;0.60;;;;;;;;;;20787268;28;20583;-89
2022/07/15 13:10:08;;;;;;;1.42;0.57;;;;;;;;;;20827829;28;20623;-88
2022/07/15 13:20:12;;;;;;;1.15;0.47;;;;;;;;;;20810714;28;20219;-87
2022/07/15 13:30:14;;;;;;;1.75;0.75;;;;;;;;;;20789205;28;20255;-87
2022/07/15 13:40:16;;;;;;;1.67;0.65;;;;;;;;;;20807042;28;20575;-88
2022/07/15 14:00:42;;;;;;;1.42;0.68;;;;;;;;;;20784587;28;20236;-87
2022/07/15 14:10:47;;;;;;;1.00;0.60;;;;;;;;;;20800372;28;20275;-87
2022/07/15 14:20:52;;;;;;;0.93;0.63;;;;;;;;;;20823767;28;20202;-87
2022/07/15 14:30:54;;;;;;;1.40;0.70;;;;;;;;;;20805435;28;20226;-86
2022/07/15 14:41:00;;;;;;;0.77;0.55;;;;;;;;;;20836489;28;20209;-86
2022/07/15 14:51:27;;;;;;;1.13;0.68;;;28.00;61.00;;;;;;20824722;28;20360;-89
2022/07/15 15:01:29;;;;;;;1.60;0.85;;;;;;;;;;20785457;28;20300;-86
2022/07/15 15:11:30;;;;;;;1.75;0.70;;;;;;;;;;20820722;28;20253;-86
2022/07/15 15:21:32;;;;;;;0.93;0.50;;;;;;;;;;20801389;28;20229;-86
2022/07/15 15:31:37;;;;;;;2.15;0.50;;;;;;;;;;20820354;28;20237;-86
2022/07/15 15:41:42;;;;;;;0.85;0.50;;;;;;;;;;20820569;28;20237;-87
2022/07/15 15:51:44;;;;;;;0.75;0.50;;;;;;;;;;20802453;28;20233;-84
2022/07/15 16:01:46;;;;;;;1.90;0.75;;;;;;;;;;20844311;28;20229;-86
2022/07/15 16:11:48;;;;;;;1.17;0.60;;;;;;;;;;20803367;28;20291;-87
2022/07/15 16:32:10;;;;;;;1.05;0.60;;;;;;;;;;20817345;28;20237;-87
2022/07/15 16:42:12;;;;;;;1.63;0.80;;;;;;;;;;20816932;28;20217;-85
2022/07/15 16:52:14;;;;;;;1.77;0.80;;;;;;;;;;20795618;28;20649;-85
2022/07/15 17:02:16;;;;;;;0.80;0.60;;;;;;;;;;20795769;28;20234;-85
2022/07/15 17:12:17;;;;;;;1.77;0.88;;;;;;;;;;20813945;28;20291;-84
2022/07/15 17:22:19;;;;;;;1.42;0.80;;;;;;;;;;20821521;28;20225;-84
2022/07/15 17:32:21;;;;;;;0.75;0.50;;;;;;;;;;20811750;28;20284;-85
2022/07/15 17:42:43;;;;;;;1.85;0.75;;;;;;;;;;20802018;28;20272;-83
2022/07/15 17:52:45;;;;;;;1.08;0.60;;;;;;;;;;20825811;28;20678;-84
2022/07/15 18:02:46;;;;;;;2.20;0.60;;;;;;;;;;20781714;28;20241;-85
2022/07/15 18:12:49;;;;;;;1.33;0.47;;;;;;;;;;20789492;28;20224;-84
2022/07/15 18:22:50;;;;;;;0.88;0.40;;;;;;;;;;20797540;28;20252;-85
2022/07/15 18:32:53;;;;;;;1.60;0.60;;;;;;;;;;20808399;28;20776;-84
2022/07/15 18:43:09;;;;;;;1.73;0.50;;;;;;;;;;20800825;28;20224;-87
2022/07/15 18:53:11;;;;;;;1.25;0.45;;;;;;;;;;20811975;28;20224;-86
2022/07/15 19:03:13;;;;;;;0.85;0.50;;;;;;;;;;20793448;28;20722;-86
2022/07/15 19:13:16;;;;;;;1.08;0.40;;;;;;;;;;20873884;28;20229;-86
2022/07/15 19:23:19;;;;;;;1.15;0.40;;;;;;;;;;20799447;28;20229;-84
2022/07/15 19:33:21;;;;;;;0.85;0.35;;;;;;;;;;20860468;28;20236;-87
2022/07/15 19:43:26;;;;;;;2.38;0.40;;;;;;;;;;20814448;28;20213;-86
2022/07/15 20:05:05;;;;;;;1.00;0.55;;;;;;;;;;20877872;22;20239;-73
2022/07/15 20:15:09;;;;;;;0.98;0.45;;;;;;;;;;20975446;28;20254;-73
2022/07/15 20:25:11;;;;;;;2.50;0.47;;;;;;;;;;20972721;28;20213;-73
2022/07/15 20:35:13;;;;;;;1.08;0.40;;;;;;;;;;20975801;28;20216;-75
2022/07/15 20:45:15;;;;;;;4.15;0.52;;;;;;;;;;20980957;28;20235;-75
2022/07/15 20:55:16;;;;;;;1.63;0.70;;;;;;;;;;20984522;28;20269;-73
2022/07/15 21:05:18;;;;;;;0.63;0.45;;;;;;;;;;20981464;28;20219;-75
2022/07/15 21:15:20;;;;;;;1.58;0.50;;;;;;;;;;21010602;22;20284;-76
2022/07/15 21:35:42;;;;;;;0.55;0.40;;;;;;;;;;21066759;28;20223;-75
2022/07/15 21:45:44;;;;;;;1.65;0.50;;;;;;;;;;21029931;28;20260;-76
2022/07/15 21:55:47;;;;;;;1.15;0.50;;;;;;;;;;21048419;28;20649;-75
2022/07/15 22:05:49;;;;;;;1.33;0.60;;;;;;;;;;21063907;28;20214;-75
2022/07/15 22:15:51;;;;;;;1.52;0.60;;;;;;;;;;21066387;28;20218;-75
2022/07/15 22:25:53;;;;;;;1.08;0.60;;;;;;;;;;21066037;28;20198;-75
2022/07/15 22:35:54;;;;;;;1.73;0.60;;;;;;;;;;21069478;28;20219;-75
2022/07/15 22:45:56;;;;;;;1.40;0.57;;;;;;;;;;21033603;28;20271;-75
2022/07/15 22:55:58;;;;;;;1.17;0.50;;;;;;;;;;21067043;28;20237;-75
2022/07/15 23:06:00;;;;;;;1.10;0.65;;;;;;;;;;21084149;28;20226;-75
2022/07/15 23:16:02;;;;;;;1.20;0.40;;;;;;;;;;21082313;28;20212;-75
2022/07/15 23:26:03;;;;;;;2.20;0.50;;;;;;;;;;21080038;28;20206;-75
2022/07/15 23:36:05;;;;;;;1.83;0.45;;;22.80;81.10;;;;;;21079110;28;20211;-75
2022/07/15 23:46:07;;;;;;;2.30;0.63;;;;;;;;;;21063537;28;20576;-75
2022/07/15 23:56:14;;;;;;;0.95;0.40;;;;;;;;;;21079295;28;20280;-76
